Terminal Aerodrome Forecast
Issued by NWS Wilmington, OH

Current Version | Previous Version | Text Only | Print | Product List | Glossary Off
Versions: 1 2 3 4 5 6 7 8 9 10 11 12 13 14 15 16 17 18 19 20 21 22 23 24 25 26 27

000
FTUS41 KILN 011500 AAB
TAFCVG
TAF AMD
KCVG 011506Z 0115/0218 20005KT P6SM VCSH SCT015 BKN030
      TEMPO 0119/0122 24006KT 5SM -RA BKN015
     FM012200 28006KT P6SM VCSH OVC020
      TEMPO 0122/0202 1SM -SN OVC009
     FM020400 31009KT P6SM OVC012=

USA.gov is the U.S. government's official web portal to all federal, state and local government web resources and services.